createdAt,value
2022-12-07T00:01:21.431Z,10.55
2022-12-07T00:06:15.569Z,9.65
2022-12-07T00:11:13.785Z,6.20
2022-12-07T00:16:11.717Z,4.28
2022-12-07T00:21:12.101Z,3.35
2022-12-07T00:26:12.703Z,5.72
2022-12-07T00:31:11.258Z,7.60
2022-12-07T00:36:09.078Z,6.38
2022-12-07T00:41:28.497Z,6.05
2022-12-07T00:46:21.454Z,3.65
2022-12-07T00:51:15.257Z,4.68
2022-12-07T00:56:15.520Z,2.80
2022-12-07T01:01:09.445Z,3.63
2022-12-07T01:06:01.347Z,7.53
2022-12-07T01:11:02.199Z,4.30
2022-12-07T01:15:59.184Z,3.88
2022-12-07T01:21:06.329Z,5.00
2022-12-07T01:25:59.635Z,5.22
2022-12-07T01:30:59.875Z,3.42
2022-12-07T01:35:51.651Z,4.30
2022-12-07T01:40:43.409Z,6.07
2022-12-07T01:45:41.432Z,3.80
2022-12-07T01:50:33.699Z,5.43
2022-12-07T01:55:26.771Z,5.07
2022-12-07T02:00:19.889Z,3.83
2022-12-07T02:05:12.765Z,3.35
2022-12-07T02:10:15.451Z,3.75
2022-12-07T02:15:08.970Z,6.30
2022-12-07T02:20:10.233Z,8.73
2022-12-07T02:25:39.640Z,6.05
2022-12-07T02:30:36.123Z,4.55
2022-12-07T02:35:36.740Z,5.53
2022-12-07T02:40:41.725Z,5.32
2022-12-07T02:45:37.779Z,6.68
2022-12-07T02:50:29.721Z,3.63
2022-12-07T02:55:27.946Z,4.00
2022-12-07T03:00:21.984Z,7.38
2022-12-07T03:05:32.529Z,9.35
2022-12-07T03:10:29.718Z,5.13
2022-12-07T03:15:29.211Z,6.38
2022-12-07T03:20:24.696Z,3.03
2022-12-07T03:25:18.246Z,10.32
2022-12-07T03:30:23.966Z,7.65
2022-12-07T03:35:22.592Z,4.70
2022-12-07T03:40:26.487Z,3.50
2022-12-07T03:45:18.920Z,7.93
2022-12-07T03:50:20.648Z,7.05
2022-12-07T03:55:15.917Z,5.85
2022-12-07T04:00:09.188Z,5.80
2022-12-07T04:05:00.928Z,8.43
2022-12-07T04:09:52.663Z,4.45
2022-12-07T04:14:44.332Z,3.80
2022-12-07T04:19:36.058Z,4.05
2022-12-07T04:24:28.701Z,7.97
2022-12-07T04:29:20.854Z,6.32
2022-12-07T04:34:13.782Z,5.00
2022-12-07T04:39:07.763Z,3.03
2022-12-07T04:44:03.244Z,5.63
2022-12-07T04:48:55.893Z,6.30
2022-12-07T04:53:48.264Z,6.13
2022-12-07T04:58:39.927Z,7.93
2022-12-07T05:03:31.627Z,5.30
2022-12-07T05:08:23.389Z,5.10
2022-12-07T05:13:15.077Z,5.55
2022-12-07T05:18:06.968Z,4.88
2022-12-07T05:22:59.598Z,5.28
2022-12-07T05:27:51.277Z,6.38
2022-12-07T05:32:42.891Z,8.73
2022-12-07T05:37:34.574Z,9.20
2022-12-07T05:42:26.234Z,3.78
2022-12-07T05:47:18.177Z,5.93
2022-12-07T05:52:09.825Z,7.10
2022-12-07T05:57:01.606Z,7.38
2022-12-07T06:02:11.909Z,2.83
2022-12-07T06:07:04.707Z,6.65
2022-12-07T06:12:15.679Z,5.35
2022-12-07T06:17:08.136Z,3.88
2022-12-07T06:22:00.443Z,6.03
2022-12-07T06:26:52.255Z,7.18
2022-12-07T06:31:44.154Z,10.07
2022-12-07T06:36:36.289Z,4.82
2022-12-07T06:41:28.055Z,7.43
2022-12-07T06:46:20.157Z,8.45
2022-12-07T06:51:11.992Z,6.15
2022-12-07T06:56:05.170Z,4.55
2022-12-07T07:00:56.918Z,7.40
2022-12-07T07:05:49.370Z,7.40
2022-12-07T07:10:41.375Z,5.53
2022-12-07T07:15:33.851Z,5.85
2022-12-07T07:20:25.671Z,8.30
2022-12-07T07:25:17.647Z,7.25
2022-12-07T07:30:10.432Z,3.47
2022-12-07T07:35:02.203Z,5.28
2022-12-07T07:39:53.851Z,5.95
2022-12-07T07:44:45.619Z,4.43
2022-12-07T07:49:37.518Z,4.72
2022-12-07T07:54:30.019Z,6.68
2022-12-07T07:59:21.736Z,9.63
2022-12-07T08:04:13.524Z,4.72
2022-12-07T08:09:06.821Z,6.15
2022-12-07T08:13:58.615Z,6.13
2022-12-07T08:18:50.624Z,4.45
2022-12-07T08:23:43.098Z,7.28
2022-12-07T08:28:34.886Z,9.73
2022-12-07T08:33:27.144Z,5.82
2022-12-07T08:38:18.818Z,5.53
2022-12-07T08:43:10.528Z,4.22
2022-12-07T08:48:09.800Z,8.15
2022-12-07T08:53:02.383Z,3.67
2022-12-07T08:57:54.486Z,4.43
2022-12-07T09:02:47.189Z,4.70
2022-12-07T09:07:40.200Z,2.40
2022-12-07T09:12:31.970Z,6.05
2022-12-07T09:17:23.663Z,4.97
2022-12-07T09:22:15.486Z,3.85
2022-12-07T09:27:07.150Z,5.55
2022-12-07T09:31:59.051Z,10.98
2022-12-07T09:36:50.774Z,10.20
2022-12-07T09:41:45.673Z,4.30
2022-12-07T09:46:39.748Z,4.25
2022-12-07T09:51:32.507Z,2.33
2022-12-07T09:56:24.975Z,2.17
2022-12-07T10:01:19.906Z,2.30
2022-12-07T10:06:13.843Z,3.08
2022-12-07T10:11:11.572Z,2.80
2022-12-07T10:16:07.148Z,3.33
2022-12-07T10:21:04.338Z,3.53
2022-12-07T10:25:56.202Z,2.75
2022-12-07T10:30:54.176Z,2.33
2022-12-07T10:35:45.906Z,3.63
2022-12-07T10:40:39.745Z,2.55
2022-12-07T10:45:38.695Z,2.70
2022-12-07T10:50:52.875Z,2.67
2022-12-07T10:56:12.608Z,3.10
2022-12-07T11:01:23.405Z,1.60
2022-12-07T11:06:43.070Z,3.25
2022-12-07T11:11:49.960Z,2.13
2022-12-07T11:16:44.697Z,1.73
2022-12-07T11:21:49.718Z,3.90
2022-12-07T11:26:53.436Z,2.08
2022-12-07T11:32:07.799Z,1.83
2022-12-07T11:37:06.069Z,4.10
2022-12-07T11:47:32.587Z,4.93
2022-12-07T11:52:36.604Z,1.23
2022-12-07T11:57:59.567Z,0.88
2022-12-07T12:03:12.725Z,2.30
2022-12-07T12:19:07.609Z,2.67
2022-12-07T12:24:04.427Z,1.25
2022-12-07T12:29:00.760Z,2.60
2022-12-07T12:34:03.869Z,3.20
2022-12-07T12:39:08.035Z,1.42
2022-12-07T12:43:59.765Z,2.88
2022-12-07T12:48:51.638Z,2.13
2022-12-07T12:53:43.391Z,1.67
2022-12-07T12:58:38.304Z,2.72
2022-12-07T13:03:32.893Z,1.90
2022-12-07T13:08:31.922Z,3.67
2022-12-07T13:13:31.673Z,4.40
2022-12-07T13:18:29.695Z,5.07
2022-12-07T13:23:25.191Z,3.28
2022-12-07T13:28:19.546Z,1.45
2022-12-07T13:33:19.641Z,1.50
2022-12-07T13:38:33.559Z,4.32
2022-12-07T13:43:25.208Z,1.65
2022-12-07T13:48:34.374Z,2.88
2022-12-07T13:53:31.362Z,3.10
2022-12-07T13:58:23.678Z,1.70
2022-12-07T14:03:15.283Z,2.55
2022-12-07T14:08:23.858Z,2.47
2022-12-07T14:13:37.467Z,2.28
2022-12-07T14:18:40.991Z,3.30
2022-12-07T14:23:32.712Z,3.20
2022-12-07T14:28:30.282Z,2.50
2022-12-07T14:33:23.147Z,1.45
2022-12-07T14:38:14.885Z,3.92
2022-12-07T14:43:13.537Z,2.90
2022-12-07T14:58:19.396Z,2.55
2022-12-07T15:03:12.096Z,1.13
2022-12-07T15:08:04.181Z,3.85
2022-12-07T15:12:56.047Z,3.42
2022-12-07T15:17:47.812Z,2.88
2022-12-07T15:22:39.482Z,3.00
2022-12-07T15:27:31.687Z,4.47
2022-12-07T15:32:24.203Z,2.05
2022-12-07T15:37:16.039Z,3.20
2022-12-07T15:42:07.975Z,3.05
2022-12-07T15:47:00.214Z,1.67
2022-12-07T15:51:51.849Z,1.40
2022-12-07T15:56:43.606Z,1.60
2022-12-07T16:01:35.339Z,1.35
2022-12-07T16:06:27.994Z,2.53
2022-12-07T16:11:19.857Z,3.35
2022-12-07T16:16:15.689Z,1.95
2022-12-07T16:21:08.547Z,2.13
2022-12-07T16:26:14.791Z,3.53
2022-12-07T16:31:10.906Z,2.72
2022-12-07T16:36:05.395Z,5.10
2022-12-07T16:40:57.094Z,3.30
2022-12-07T16:45:49.912Z,1.77
2022-12-07T16:50:45.522Z,4.68
2022-12-07T16:55:46.198Z,4.40
2022-12-07T17:00:38.292Z,5.05
2022-12-07T17:05:30.284Z,6.20
2022-12-07T17:10:22.122Z,4.35
2022-12-07T17:15:18.265Z,4.85
2022-12-07T17:20:10.759Z,6.82
2022-12-07T17:25:03.624Z,10.80
2022-12-07T17:29:55.583Z,4.75
2022-12-07T17:34:47.303Z,10.93
2022-12-07T17:39:39.356Z,7.38
2022-12-07T17:44:32.000Z,9.15
2022-12-07T17:49:24.128Z,8.95
2022-12-07T17:54:16.104Z,11.48
2022-12-07T17:59:08.567Z,13.10
2022-12-07T18:04:00.308Z,7.35
2022-12-07T18:08:51.987Z,6.15
2022-12-07T18:13:44.289Z,6.30
2022-12-07T18:18:37.164Z,5.60
2022-12-07T18:23:29.088Z,6.05
2022-12-07T18:28:21.267Z,5.75
2022-12-07T18:33:13.086Z,7.30
2022-12-07T18:38:04.721Z,13.02
2022-12-07T18:42:56.457Z,7.90
2022-12-07T18:47:48.170Z,14.25
2022-12-07T18:52:40.044Z,18.30
2022-12-07T18:57:34.950Z,51.55
2022-12-07T19:02:26.751Z,43.38
2022-12-07T19:07:18.763Z,36.67
2022-12-07T19:12:14.474Z,26.88
2022-12-07T19:17:09.399Z,41.30
2022-12-07T19:22:02.354Z,32.65
2022-12-07T19:26:55.877Z,40.75
2022-12-07T19:31:48.035Z,29.23
2022-12-07T19:36:40.373Z,26.15
2022-12-07T19:41:35.254Z,28.60
2022-12-07T19:46:30.429Z,43.00
2022-12-07T19:51:22.464Z,44.83
2022-12-07T19:56:16.004Z,37.03
2022-12-07T20:01:08.065Z,34.80
2022-12-07T20:05:59.864Z,28.60
2022-12-07T20:10:52.272Z,23.10
2022-12-07T20:15:44.053Z,21.00
2022-12-07T20:20:35.848Z,17.85
2022-12-07T20:25:27.804Z,20.02
2022-12-07T20:30:19.828Z,16.25
2022-12-07T20:35:11.562Z,16.83
2022-12-07T20:40:03.488Z,18.42
2022-12-07T20:44:59.687Z,20.65
2022-12-07T20:49:54.672Z,24.33
2022-12-07T20:54:46.415Z,13.00
2022-12-07T20:59:41.667Z,15.00
2022-12-07T21:04:33.589Z,19.05
2022-12-07T21:09:27.119Z,15.70
2022-12-07T21:14:18.857Z,12.18
2022-12-07T21:19:10.632Z,12.50
2022-12-07T21:24:04.167Z,6.88
2022-12-07T21:28:57.512Z,8.77
2022-12-07T21:33:50.688Z,6.05
2022-12-07T21:38:42.853Z,8.50
2022-12-07T21:43:34.625Z,7.88
2022-12-07T21:48:26.454Z,9.77
2022-12-07T21:53:18.277Z,8.85
2022-12-07T21:58:10.266Z,9.63
2022-12-07T22:03:02.117Z,12.25
2022-12-07T22:07:53.946Z,12.05
2022-12-07T22:12:45.714Z,8.27
2022-12-07T22:17:37.475Z,11.05
2022-12-07T22:22:29.306Z,15.43
2022-12-07T22:27:21.123Z,11.40
2022-12-07T22:32:46.436Z,12.05
2022-12-07T22:37:24.657Z,11.77
2022-12-07T22:42:16.291Z,10.32
2022-12-07T22:47:08.109Z,10.48
2022-12-07T22:51:59.833Z,9.48
2022-12-07T22:56:51.735Z,11.18
2022-12-07T23:01:43.679Z,10.30
2022-12-07T23:06:37.083Z,7.18
2022-12-07T23:11:50.264Z,8.68
2022-12-07T23:16:45.187Z,9.32
2022-12-07T23:21:36.963Z,16.50
2022-12-07T23:26:28.736Z,11.02
2022-12-07T23:31:21.415Z,11.77
2022-12-07T23:36:15.949Z,11.32
2022-12-07T23:41:10.379Z,8.57
2022-12-07T23:46:02.332Z,12.10
2022-12-07T23:50:58.645Z,10.88
2022-12-07T23:55:50.323Z,8.38
